SWA1143 KBWI-KGSP
Flight info
| Callsign | SWA1143 |
|---|---|
| Flight time | 1h 7m |
| Altitude | 36000 |
| Route | TERPZ8 GLANC FUBLL JUNNR4 |
| Aircraft | B738/M-SADE2E3GIJ4RWZ/LB1D1 |
Departure
| Time | 2026-05-05 23:25 |
|---|---|
| Airport | Baltimore/Washington International Thurgood Marshall Airport (KBWI) |
Arrival
| Time | 2026-05-06 00:33 |
|---|---|
| Airport | Greenville-Spartanburg International Airport (KGSP) |
| Time | Latitude | Longitude | Altitude | Speed | Heading |
|---|---|---|---|---|---|
| 2026-05-05 22:16 | 39.17862 | -76.67155 | 155 ft | 0 kts | 55° |
| 2026-05-05 23:02 | 39.17860 | -76.67157 | 155 ft | 0 kts | 54° |
| 2026-05-05 23:12 | 39.17854 | -76.67169 | 155 ft | 4 kts | 58° |
| 2026-05-05 23:13 | 39.17841 | -76.67199 | 155 ft | 4 kts | 69° |
| 2026-05-05 23:13 | 39.17834 | -76.67232 | 154 ft | 4 kts | 85° |
| 2026-05-05 23:13 | 39.17836 | -76.67264 | 154 ft | 4 kts | 122° |
| 2026-05-05 23:13 | 39.17842 | -76.67275 | 153 ft | 1 kts | 144° |
| 2026-05-05 23:17 | 39.17826 | -76.67259 | 154 ft | 8 kts | 144° |
| 2026-05-05 23:17 | 39.17755 | -76.67193 | 154 ft | 17 kts | 144° |
| 2026-05-05 23:17 | 39.17655 | -76.67100 | 157 ft | 18 kts | 144° |
| 2026-05-05 23:17 | 39.17561 | -76.67008 | 155 ft | 17 kts | 129° |
| 2026-05-05 23:18 | 39.17533 | -76.66869 | 155 ft | 16 kts | 94° |
| 2026-05-05 23:18 | 39.17527 | -76.66729 | 154 ft | 15 kts | 94° |
| 2026-05-05 23:18 | 39.17521 | -76.66605 | 153 ft | 10 kts | 94° |
| 2026-05-05 23:18 | 39.17556 | -76.66535 | 153 ft | 10 kts | 32° |
| 2026-05-05 23:19 | 39.17564 | -76.66457 | 152 ft | 10 kts | 118° |
| 2026-05-05 23:19 | 39.17526 | -76.66375 | 151 ft | 12 kts | 123° |
| 2026-05-05 23:19 | 39.17474 | -76.66275 | 148 ft | 14 kts | 123° |
| 2026-05-05 23:19 | 39.17452 | -76.66159 | 148 ft | 13 kts | 90° |
| 2026-05-05 23:20 | 39.17446 | -76.66043 | 147 ft | 13 kts | 94° |
| 2026-05-05 23:20 | 39.17440 | -76.65928 | 145 ft | 13 kts | 94° |
| 2026-05-05 23:20 | 39.17434 | -76.65811 | 142 ft | 14 kts | 94° |
| 2026-05-05 23:20 | 39.17426 | -76.65679 | 140 ft | 15 kts | 94° |
| 2026-05-05 23:21 | 39.17421 | -76.65583 | 141 ft | 8 kts | 94° |
| 2026-05-05 23:21 | 39.17401 | -76.65521 | 140 ft | 4 kts | 153° |
| 2026-05-05 23:21 | 39.17379 | -76.65521 | 140 ft | 3 kts | 181° |
| 2026-05-05 23:21 | 39.17375 | -76.65521 | 140 ft | 0 kts | 181° |
| 2026-05-05 23:24 | 39.17374 | -76.65521 | 140 ft | 0 kts | 181° |
| 2026-05-05 23:24 | 39.17359 | -76.65521 | 140 ft | 5 kts | 181° |
| 2026-05-05 23:24 | 39.17293 | -76.65532 | 139 ft | 13 kts | 214° |
| 2026-05-05 23:25 | 39.17285 | -76.65708 | 140 ft | 43 kts | 272° |
| 2026-05-05 23:25 | 39.17329 | -76.66420 | 150 ft | 115 kts | 274° |
| 2026-05-05 23:25 | 39.17392 | -76.67714 | 210 ft | 169 kts | 270° |
| 2026-05-05 23:25 | 39.17480 | -76.69262 | 929 ft | 173 kts | 272° |
| 2026-05-05 23:26 | 39.17602 | -76.70764 | 1912 ft | 160 kts | 267° |
| 2026-05-05 23:26 | 39.17659 | -76.72164 | 2705 ft | 156 kts | 265° |
| 2026-05-05 23:26 | 39.17724 | -76.73603 | 3233 ft | 168 kts | 266° |
| 2026-05-05 23:26 | 39.17794 | -76.75173 | 3697 ft | 182 kts | 266° |
| 2026-05-05 23:27 | 39.18011 | -76.76828 | 4201 ft | 195 kts | 276° |
| 2026-05-05 23:27 | 39.18408 | -76.78554 | 4644 ft | 205 kts | 278° |
| 2026-05-05 23:27 | 39.18783 | -76.80304 | 5151 ft | 208 kts | 276° |
| 2026-05-05 23:27 | 39.19129 | -76.82183 | 5578 ft | 223 kts | 276° |
| 2026-05-05 23:28 | 39.19505 | -76.84189 | 6168 ft | 241 kts | 277° |
| 2026-05-05 23:28 | 39.19927 | -76.86378 | 6773 ft | 254 kts | 278° |
| 2026-05-05 23:28 | 39.20366 | -76.88560 | 7846 ft | 253 kts | 279° |
| 2026-05-05 23:28 | 39.20805 | -76.90820 | 8507 ft | 266 kts | 280° |
| 2026-05-05 23:29 | 39.21249 | -76.93124 | 9571 ft | 263 kts | 281° |
| 2026-05-05 23:29 | 39.21694 | -76.95421 | 10431 ft | 268 kts | 281° |
| 2026-05-05 23:29 | 39.22082 | -76.97873 | 10704 ft | 292 kts | 273° |
| 2026-05-05 23:29 | 39.22142 | -77.00592 | 10985 ft | 314 kts | 268° |
| 2026-05-05 23:30 | 39.22133 | -77.03466 | 11583 ft | 324 kts | 268° |
| 2026-05-05 23:30 | 39.22139 | -77.05401 | 12111 ft | 327 kts | 269° |
| 2026-05-05 23:30 | 39.22170 | -77.09343 | 13216 ft | 331 kts | 267° |
| 2026-05-05 23:30 | 39.21723 | -77.12246 | 13943 ft | 335 kts | 247° |
| 2026-05-05 23:31 | 39.20528 | -77.14835 | 14715 ft | 338 kts | 232° |
| 2026-05-05 23:31 | 39.18781 | -77.16886 | 15485 ft | 344 kts | 217° |
| 2026-05-05 23:31 | 39.16761 | -77.18572 | 16236 ft | 348 kts | 214° |
| 2026-05-05 23:31 | 39.14692 | -77.20225 | 16941 ft | 352 kts | 214° |
| 2026-05-05 23:32 | 39.12609 | -77.21912 | 17653 ft | 355 kts | 215° |
| 2026-05-05 23:32 | 39.10515 | -77.23632 | 18374 ft | 358 kts | 215° |
| 2026-05-05 23:32 | 39.08406 | -77.25353 | 18996 ft | 361 kts | 213° |
| 2026-05-05 23:32 | 39.06211 | -77.26963 | 19598 ft | 365 kts | 211° |
| 2026-05-05 23:33 | 39.03962 | -77.28521 | 20194 ft | 369 kts | 211° |
| 2026-05-05 23:33 | 39.01720 | -77.30055 | 20785 ft | 371 kts | 211° |
| 2026-05-05 23:33 | 38.99405 | -77.31642 | 21391 ft | 374 kts | 211° |
| 2026-05-05 23:33 | 38.97101 | -77.33233 | 21957 ft | 377 kts | 211° |
| 2026-05-05 23:34 | 38.94786 | -77.34839 | 22526 ft | 380 kts | 211° |
| 2026-05-05 23:34 | 38.92448 | -77.36466 | 23081 ft | 383 kts | 211° |
| 2026-05-05 23:34 | 38.90088 | -77.38112 | 23598 ft | 387 kts | 211° |
| 2026-05-05 23:34 | 38.87746 | -77.39744 | 24015 ft | 390 kts | 211° |
| 2026-05-05 23:35 | 38.85348 | -77.41416 | 24433 ft | 394 kts | 212° |
| 2026-05-05 23:35 | 38.82930 | -77.43100 | 24868 ft | 397 kts | 212° |
| 2026-05-05 23:35 | 38.80490 | -77.44798 | 25304 ft | 400 kts | 212° |
| 2026-05-05 23:35 | 38.78033 | -77.46506 | 25706 ft | 404 kts | 212° |
| 2026-05-05 23:36 | 38.75551 | -77.48231 | 26100 ft | 407 kts | 212° |
| 2026-05-05 23:36 | 38.73055 | -77.49968 | 26496 ft | 410 kts | 213° |
| 2026-05-05 23:36 | 38.70607 | -77.51854 | 26876 ft | 412 kts | 216° |
| 2026-05-05 23:36 | 38.68199 | -77.53865 | 27235 ft | 414 kts | 217° |
| 2026-05-05 23:37 | 38.65798 | -77.55920 | 27567 ft | 418 kts | 218° |
| 2026-05-05 23:37 | 38.63368 | -77.57998 | 27899 ft | 422 kts | 218° |
| 2026-05-05 23:37 | 38.60909 | -77.60084 | 28286 ft | 424 kts | 218° |
| 2026-05-05 23:37 | 38.58437 | -77.62161 | 28682 ft | 426 kts | 218° |
| 2026-05-05 23:38 | 38.56787 | -77.63540 | 28917 ft | 428 kts | 218° |
| 2026-05-05 23:38 | 38.54287 | -77.65623 | 29240 ft | 431 kts | 218° |
| 2026-05-05 23:38 | 38.51727 | -77.67750 | 29589 ft | 434 kts | 218° |
| 2026-05-05 23:38 | 38.49219 | -77.69831 | 29996 ft | 435 kts | 218° |
| 2026-05-05 23:39 | 38.46653 | -77.71956 | 30420 ft | 433 kts | 219° |
| 2026-05-05 23:39 | 38.44134 | -77.74044 | 30795 ft | 433 kts | 219° |
| 2026-05-05 23:39 | 38.41603 | -77.76141 | 31147 ft | 433 kts | 219° |
| 2026-05-05 23:39 | 38.39120 | -77.78194 | 31675 ft | 429 kts | 219° |
| 2026-05-05 23:40 | 38.36706 | -77.80395 | 32016 ft | 423 kts | 229° |
| 2026-05-05 23:40 | 38.34807 | -77.83198 | 32304 ft | 417 kts | 237° |
| 2026-05-05 23:40 | 38.32995 | -77.86088 | 32645 ft | 418 kts | 237° |
| 2026-05-05 23:40 | 38.31170 | -77.88952 | 33050 ft | 417 kts | 237° |
| 2026-05-05 23:41 | 38.29333 | -77.91800 | 33451 ft | 416 kts | 236° |
| 2026-05-05 23:41 | 38.27490 | -77.94635 | 33817 ft | 415 kts | 237° |
| 2026-05-05 23:41 | 38.25644 | -77.97465 | 34097 ft | 416 kts | 237° |
| 2026-05-05 23:41 | 38.23791 | -78.00301 | 34337 ft | 417 kts | 237° |
| 2026-05-05 23:42 | 38.21932 | -78.03142 | 34654 ft | 416 kts | 237° |
| 2026-05-05 23:42 | 38.20082 | -78.05966 | 34985 ft | 415 kts | 238° |
| 2026-05-05 23:42 | 38.18234 | -78.08787 | 35254 ft | 415 kts | 238° |
| 2026-05-05 23:42 | 38.16383 | -78.11612 | 35504 ft | 416 kts | 238° |
| 2026-05-05 23:43 | 38.14536 | -78.14427 | 35815 ft | 415 kts | 238° |
| 2026-05-05 23:43 | 38.12682 | -78.17252 | 35902 ft | 419 kts | 238° |
| 2026-05-05 23:43 | 38.08917 | -78.22982 | 35908 ft | 423 kts | 238° |
| 2026-05-05 23:44 | 38.05177 | -78.28701 | 35895 ft | 417 kts | 239° |
| 2026-05-05 23:44 | 38.01523 | -78.34410 | 35920 ft | 417 kts | 239° |
| 2026-05-05 23:45 | 37.97865 | -78.40131 | 35922 ft | 418 kts | 239° |
| 2026-05-05 23:45 | 37.94183 | -78.45862 | 35915 ft | 419 kts | 239° |
| 2026-05-05 23:46 | 37.90489 | -78.51592 | 35923 ft | 420 kts | 239° |
| 2026-05-05 23:46 | 37.86791 | -78.57319 | 35920 ft | 421 kts | 239° |
| 2026-05-05 23:47 | 37.83080 | -78.63055 | 35916 ft | 421 kts | 239° |
| 2026-05-05 23:47 | 37.79390 | -78.68749 | 35926 ft | 421 kts | 239° |
| 2026-05-05 23:48 | 37.75673 | -78.74478 | 35917 ft | 421 kts | 239° |
| 2026-05-05 23:48 | 37.71908 | -78.80140 | 35916 ft | 426 kts | 233° |
| 2026-05-05 23:49 | 37.67133 | -78.84794 | 35919 ft | 437 kts | 225° |
| 2026-05-05 23:49 | 37.62174 | -78.89230 | 35926 ft | 435 kts | 225° |
| 2026-05-05 23:50 | 37.57284 | -78.93727 | 35946 ft | 435 kts | 226° |
| 2026-05-05 23:50 | 37.52417 | -78.98267 | 35950 ft | 436 kts | 226° |
| 2026-05-05 23:51 | 37.47544 | -79.02803 | 35956 ft | 436 kts | 226° |
| 2026-05-05 23:51 | 37.42765 | -79.07465 | 35943 ft | 427 kts | 234° |
| 2026-05-05 23:52 | 37.38714 | -79.12833 | 35961 ft | 422 kts | 238° |
| 2026-05-05 23:52 | 37.34747 | -79.18293 | 35969 ft | 424 kts | 237° |
| 2026-05-05 23:53 | 37.30697 | -79.23719 | 35957 ft | 426 kts | 236° |
| 2026-05-05 23:53 | 37.26636 | -79.29073 | 35968 ft | 427 kts | 236° |
| 2026-05-05 23:54 | 37.22531 | -79.34467 | 35920 ft | 427 kts | 236° |
| 2026-05-05 23:54 | 37.18424 | -79.39859 | 35944 ft | 428 kts | 236° |
| 2026-05-05 23:55 | 37.14308 | -79.45254 | 35956 ft | 428 kts | 236° |
| 2026-05-05 23:55 | 37.09922 | -79.50422 | 35960 ft | 435 kts | 232° |
| 2026-05-05 23:56 | 37.05368 | -79.55441 | 35950 ft | 436 kts | 232° |
| 2026-05-05 23:56 | 37.00856 | -79.60436 | 35935 ft | 435 kts | 232° |
| 2026-05-05 23:57 | 36.96348 | -79.65473 | 35947 ft | 434 kts | 233° |
| 2026-05-05 23:57 | 36.91854 | -79.70509 | 35953 ft | 434 kts | 233° |
| 2026-05-05 23:58 | 36.87368 | -79.75532 | 35966 ft | 434 kts | 233° |
| 2026-05-05 23:58 | 36.82853 | -79.80581 | 35655 ft | 436 kts | 232° |
| 2026-05-05 23:59 | 36.80605 | -79.83086 | 35428 ft | 432 kts | 232° |
| 2026-05-05 23:59 | 36.78365 | -79.85578 | 35164 ft | 430 kts | 232° |
| 2026-05-05 23:59 | 36.76132 | -79.88067 | 34939 ft | 433 kts | 232° |
| 2026-05-05 23:59 | 36.73879 | -79.90579 | 34711 ft | 434 kts | 232° |
| 2026-05-06 00:00 | 36.71622 | -79.93091 | 34530 ft | 435 kts | 232° |
| 2026-05-06 00:00 | 36.69367 | -79.95595 | 34426 ft | 433 kts | 232° |
| 2026-05-06 00:00 | 36.67119 | -79.98088 | 34305 ft | 432 kts | 232° |
| 2026-05-06 00:00 | 36.64876 | -80.00576 | 34191 ft | 432 kts | 232° |
| 2026-05-06 00:01 | 36.62634 | -80.03062 | 34075 ft | 431 kts | 232° |
| 2026-05-06 00:01 | 36.60393 | -80.05547 | 33953 ft | 432 kts | 232° |
| 2026-05-06 00:01 | 36.58147 | -80.08033 | 33810 ft | 432 kts | 232° |
| 2026-05-06 00:01 | 36.55896 | -80.10524 | 33625 ft | 434 kts | 231° |
| 2026-05-06 00:02 | 36.53575 | -80.12955 | 33495 ft | 439 kts | 228° |
| 2026-05-06 00:02 | 36.51173 | -80.15245 | 33371 ft | 443 kts | 226° |
| 2026-05-06 00:02 | 36.48683 | -80.17527 | 33233 ft | 445 kts | 226° |
| 2026-05-06 00:02 | 36.46183 | -80.19800 | 33103 ft | 446 kts | 226° |
| 2026-05-06 00:03 | 36.43685 | -80.22084 | 32991 ft | 446 kts | 226° |
| 2026-05-06 00:03 | 36.41192 | -80.24381 | 32869 ft | 446 kts | 226° |
| 2026-05-06 00:03 | 36.38703 | -80.26690 | 32749 ft | 447 kts | 226° |
| 2026-05-06 00:03 | 36.36217 | -80.29004 | 32609 ft | 447 kts | 226° |
| 2026-05-06 00:04 | 36.33733 | -80.31318 | 32432 ft | 446 kts | 226° |
| 2026-05-06 00:04 | 36.31251 | -80.33628 | 32296 ft | 446 kts | 226° |
| 2026-05-06 00:04 | 36.28770 | -80.35936 | 32175 ft | 446 kts | 226° |
| 2026-05-06 00:04 | 36.26289 | -80.38242 | 32052 ft | 446 kts | 226° |
| 2026-05-06 00:05 | 36.18869 | -80.45061 | 31972 ft | 444 kts | 222° |
| 2026-05-06 00:06 | 36.13442 | -80.48911 | 31972 ft | 453 kts | 217° |
| 2026-05-06 00:06 | 36.07938 | -80.52489 | 31939 ft | 432 kts | 217° |
| 2026-05-06 00:06 | 36.05336 | -80.54212 | 31956 ft | 416 kts | 218° |
| 2026-05-06 00:07 | 36.02830 | -80.55904 | 31896 ft | 404 kts | 219° |
| 2026-05-06 00:07 | 36.00403 | -80.57565 | 31641 ft | 397 kts | 219° |
| 2026-05-06 00:07 | 35.97999 | -80.59223 | 31226 ft | 395 kts | 219° |
| 2026-05-06 00:07 | 35.95576 | -80.60900 | 30300 ft | 406 kts | 218° |
| 2026-05-06 00:08 | 35.93052 | -80.62642 | 29097 ft | 422 kts | 217° |
| 2026-05-06 00:08 | 35.90472 | -80.64402 | 28358 ft | 424 kts | 216° |
| 2026-05-06 00:08 | 35.87901 | -80.66145 | 27860 ft | 419 kts | 216° |
| 2026-05-06 00:08 | 35.85365 | -80.67867 | 27436 ft | 413 kts | 216° |
| 2026-05-06 00:09 | 35.82857 | -80.69573 | 27058 ft | 407 kts | 216° |
| 2026-05-06 00:09 | 35.80423 | -80.71225 | 27008 ft | 392 kts | 216° |
| 2026-05-06 00:09 | 35.78108 | -80.72796 | 26992 ft | 378 kts | 217° |
| 2026-05-06 00:09 | 35.75848 | -80.74330 | 26974 ft | 364 kts | 217° |
| 2026-05-06 00:10 | 35.73662 | -80.75817 | 26780 ft | 356 kts | 217° |
| 2026-05-06 00:10 | 35.71462 | -80.77326 | 25803 ft | 370 kts | 217° |
| 2026-05-06 00:10 | 35.69148 | -80.78922 | 24663 ft | 391 kts | 216° |
| 2026-05-06 00:10 | 35.66747 | -80.80565 | 23968 ft | 397 kts | 215° |
| 2026-05-06 00:11 | 35.64344 | -80.82193 | 23550 ft | 393 kts | 214° |
| 2026-05-06 00:11 | 35.61966 | -80.83798 | 23123 ft | 387 kts | 214° |
| 2026-05-06 00:11 | 35.59614 | -80.85386 | 22653 ft | 383 kts | 214° |
| 2026-05-06 00:11 | 35.57286 | -80.86960 | 22141 ft | 381 kts | 214° |
| 2026-05-06 00:12 | 35.54969 | -80.88528 | 21652 ft | 378 kts | 214° |
| 2026-05-06 00:12 | 35.52675 | -80.90081 | 21176 ft | 375 kts | 214° |
| 2026-05-06 00:12 | 35.50398 | -80.91622 | 20704 ft | 372 kts | 214° |
| 2026-05-06 00:12 | 35.48139 | -80.93150 | 20271 ft | 369 kts | 214° |
| 2026-05-06 00:13 | 35.45897 | -80.94664 | 19809 ft | 367 kts | 214° |
| 2026-05-06 00:13 | 35.43679 | -80.96160 | 19312 ft | 362 kts | 214° |
| 2026-05-06 00:13 | 35.41494 | -80.97669 | 18700 ft | 359 kts | 216° |
| 2026-05-06 00:13 | 35.39342 | -80.99216 | 18037 ft | 358 kts | 216° |
| 2026-05-06 00:14 | 35.37201 | -81.00760 | 17405 ft | 355 kts | 215° |
| 2026-05-06 00:14 | 35.35081 | -81.02279 | 16860 ft | 351 kts | 215° |
| 2026-05-06 00:14 | 35.32992 | -81.03770 | 16326 ft | 346 kts | 215° |
| 2026-05-06 00:14 | 35.30927 | -81.05238 | 15878 ft | 341 kts | 215° |
| 2026-05-06 00:15 | 35.28888 | -81.06686 | 15456 ft | 337 kts | 215° |
| 2026-05-06 00:15 | 35.26867 | -81.08122 | 15042 ft | 335 kts | 215° |
| 2026-05-06 00:15 | 35.24890 | -81.09527 | 14634 ft | 331 kts | 215° |
| 2026-05-06 00:15 | 35.22896 | -81.10942 | 14230 ft | 332 kts | 214° |
| 2026-05-06 00:16 | 35.20894 | -81.12363 | 13815 ft | 334 kts | 214° |
| 2026-05-06 00:16 | 35.18918 | -81.13847 | 13354 ft | 331 kts | 222° |
| 2026-05-06 00:16 | 35.17431 | -81.15911 | 12946 ft | 320 kts | 241° |
| 2026-05-06 00:16 | 35.16555 | -81.18344 | 12688 ft | 309 kts | 256° |
| 2026-05-06 00:17 | 35.16061 | -81.20886 | 12420 ft | 307 kts | 259° |
| 2026-05-06 00:17 | 35.15624 | -81.23445 | 12053 ft | 309 kts | 259° |
| 2026-05-06 00:17 | 35.15192 | -81.26033 | 11641 ft | 311 kts | 259° |
| 2026-05-06 00:17 | 35.14757 | -81.28606 | 11235 ft | 308 kts | 259° |
| 2026-05-06 00:18 | 35.14319 | -81.31159 | 10833 ft | 306 kts | 259° |
| 2026-05-06 00:18 | 35.13879 | -81.33691 | 10497 ft | 302 kts | 259° |
| 2026-05-06 00:18 | 35.13446 | -81.36157 | 10325 ft | 293 kts | 259° |
| 2026-05-06 00:18 | 35.13025 | -81.38544 | 10195 ft | 282 kts | 259° |
| 2026-05-06 00:19 | 35.12616 | -81.40851 | 10072 ft | 273 kts | 259° |
| 2026-05-06 00:19 | 35.12219 | -81.43088 | 9873 ft | 267 kts | 259° |
| 2026-05-06 00:19 | 35.11825 | -81.45304 | 9547 ft | 266 kts | 258° |
| 2026-05-06 00:19 | 35.11433 | -81.47507 | 9229 ft | 265 kts | 258° |
| 2026-05-06 00:20 | 35.11042 | -81.49702 | 8910 ft | 264 kts | 258° |
| 2026-05-06 00:20 | 35.10652 | -81.51891 | 8582 ft | 263 kts | 257° |
| 2026-05-06 00:20 | 35.10263 | -81.54069 | 8259 ft | 263 kts | 257° |
| 2026-05-06 00:20 | 35.09872 | -81.56251 | 7938 ft | 262 kts | 256° |
| 2026-05-06 00:21 | 35.09487 | -81.58398 | 7598 ft | 263 kts | 256° |
| 2026-05-06 00:21 | 35.09096 | -81.60577 | 7285 ft | 263 kts | 255° |
| 2026-05-06 00:21 | 35.08702 | -81.62788 | 6948 ft | 263 kts | 255° |
| 2026-05-06 00:21 | 35.08313 | -81.64971 | 6645 ft | 262 kts | 255° |
| 2026-05-06 00:22 | 35.07933 | -81.67113 | 6359 ft | 262 kts | 253° |
| 2026-05-06 00:22 | 35.07545 | -81.69284 | 6035 ft | 261 kts | 253° |
| 2026-05-06 00:22 | 35.07159 | -81.71450 | 5742 ft | 261 kts | 253° |
| 2026-05-06 00:22 | 35.06772 | -81.73612 | 5444 ft | 261 kts | 253° |
| 2026-05-06 00:23 | 35.06392 | -81.75744 | 5315 ft | 253 kts | 253° |
| 2026-05-06 00:23 | 35.06023 | -81.77814 | 5206 ft | 245 kts | 253° |
| 2026-05-06 00:23 | 35.05673 | -81.79782 | 5152 ft | 230 kts | 253° |
| 2026-05-06 00:23 | 35.05342 | -81.81631 | 5045 ft | 217 kts | 252° |
| 2026-05-06 00:24 | 35.05030 | -81.83376 | 4941 ft | 204 kts | 252° |
| 2026-05-06 00:24 | 35.04735 | -81.85021 | 4848 ft | 192 kts | 252° |
| 2026-05-06 00:24 | 35.04545 | -81.86079 | 4780 ft | 185 kts | 252° |
| 2026-05-06 00:24 | 35.04275 | -81.87571 | 4619 ft | 183 kts | 252° |
| 2026-05-06 00:25 | 35.03999 | -81.89093 | 4447 ft | 185 kts | 252° |
| 2026-05-06 00:25 | 35.03810 | -81.90137 | 4316 ft | 188 kts | 252° |
| 2026-05-06 00:26 | 35.02342 | -81.97114 | 3790 ft | 197 kts | 267° |
| 2026-05-06 00:26 | 35.02447 | -81.98807 | 3564 ft | 196 kts | 267° |
| 2026-05-06 00:27 | 35.02507 | -82.00426 | 3342 ft | 191 kts | 266° |
| 2026-05-06 00:27 | 35.02555 | -82.02052 | 3104 ft | 187 kts | 265° |
| 2026-05-06 00:27 | 35.02594 | -82.03583 | 3012 ft | 174 kts | 265° |
| 2026-05-06 00:27 | 35.02626 | -82.05025 | 3005 ft | 170 kts | 265° |
| 2026-05-06 00:28 | 35.02654 | -82.06482 | 2991 ft | 171 kts | 264° |
| 2026-05-06 00:28 | 35.02682 | -82.07919 | 2984 ft | 168 kts | 264° |
| 2026-05-06 00:28 | 35.02709 | -82.09335 | 2982 ft | 167 kts | 264° |
| 2026-05-06 00:28 | 35.02726 | -82.10740 | 2998 ft | 167 kts | 259° |
| 2026-05-06 00:29 | 35.02280 | -82.11944 | 2990 ft | 154 kts | 213° |
| 2026-05-06 00:29 | 35.01391 | -82.12660 | 2989 ft | 155 kts | 217° |
| 2026-05-06 00:29 | 35.00552 | -82.13455 | 2998 ft | 152 kts | 211° |
| 2026-05-06 00:29 | 34.99648 | -82.14154 | 2966 ft | 158 kts | 210° |
| 2026-05-06 00:30 | 34.98705 | -82.14873 | 2788 ft | 160 kts | 210° |
| 2026-05-06 00:30 | 34.97793 | -82.15573 | 2600 ft | 148 kts | 209° |
| 2026-05-06 00:30 | 34.97228 | -82.16009 | 2485 ft | 136 kts | 209° |
| 2026-05-06 00:30 | 34.96442 | -82.16610 | 2300 ft | 133 kts | 209° |
| 2026-05-06 00:31 | 34.95655 | -82.17214 | 2124 ft | 133 kts | 209° |
| 2026-05-06 00:31 | 34.94873 | -82.17812 | 1976 ft | 134 kts | 209° |
| 2026-05-06 00:31 | 34.94072 | -82.18437 | 1762 ft | 139 kts | 208° |
| 2026-05-06 00:31 | 34.93241 | -82.19064 | 1589 ft | 143 kts | 210° |
| 2026-05-06 00:32 | 34.92399 | -82.19713 | 1422 ft | 143 kts | 213° |
| 2026-05-06 00:32 | 34.91550 | -82.20364 | 1196 ft | 147 kts | 211° |
| 2026-05-06 00:32 | 34.90690 | -82.21026 | 995 ft | 145 kts | 212° |
| 2026-05-06 00:32 | 34.89886 | -82.21641 | 957 ft | 124 kts | 212° |
| 2026-05-06 00:33 | 34.89272 | -82.22112 | 959 ft | 88 kts | 212° |
| 2026-05-06 00:33 | 34.88905 | -82.22393 | 960 ft | 26 kts | 212° |
| 2026-05-06 00:33 | 34.88792 | -82.22474 | 961 ft | 12 kts | 194° |
| 2026-05-06 00:33 | 34.88730 | -82.22420 | 959 ft | 12 kts | 122° |
| 2026-05-06 00:34 | 34.88696 | -82.22347 | 959 ft | 9 kts | 100° |
| 2026-05-06 00:34 | 34.88732 | -82.22290 | 958 ft | 9 kts | 32° |
| 2026-05-06 00:34 | 34.88793 | -82.22243 | 958 ft | 11 kts | 32° |
| 2026-05-06 00:34 | 34.88865 | -82.22187 | 960 ft | 13 kts | 33° |
| 2026-05-06 00:35 | 34.88951 | -82.22121 | 958 ft | 16 kts | 31° |
| 2026-05-06 00:35 | 34.89015 | -82.22063 | 958 ft | 9 kts | 66° |
| 2026-05-06 00:35 | 34.89009 | -82.22026 | 959 ft | 3 kts | 115° |
| 2026-05-06 00:35 | 34.89002 | -82.22001 | 957 ft | 3 kts | 102° |
| 2026-05-06 00:36 | 34.89004 | -82.21975 | 959 ft | 3 kts | 79° |
| 2026-05-06 00:36 | 34.88999 | -82.21949 | 959 ft | 3 kts | 113° |
| 2026-05-06 00:36 | 34.88989 | -82.21925 | 956 ft | 3 kts | 118° |
| 2026-05-06 00:36 | 34.88981 | -82.21908 | 957 ft | 2 kts | 120° |
| 2026-05-06 00:37 | 34.88976 | -82.21898 | 957 ft | 1 kts | 119° |
| 2026-05-06 00:37 | 34.88973 | -82.21891 | 957 ft | 0 kts | 120° |
| 2026-05-06 00:37 | 34.88972 | -82.21889 | 957 ft | 0 kts | 120° |